createdAt,value
2023-02-22T00:02:10.272Z,80.00
2023-02-22T00:04:40.144Z,79.90
2023-02-22T00:07:08.116Z,80.00
2023-02-22T00:09:35.993Z,80.00
2023-02-22T00:12:03.931Z,79.90
2023-02-22T00:14:31.767Z,79.70
2023-02-22T00:16:59.979Z,79.70
2023-02-22T00:19:30.749Z,79.80
2023-02-22T00:21:59.982Z,80.00
2023-02-22T00:24:29.325Z,80.00
2023-02-22T00:26:57.225Z,80.20
2023-02-22T00:29:25.956Z,80.10
2023-02-22T00:31:54.324Z,79.90
2023-02-22T00:34:24.000Z,79.80
2023-02-22T00:36:52.164Z,79.70
2023-02-22T00:39:21.454Z,80.10
2023-02-22T00:41:49.684Z,80.60
2023-02-22T00:44:17.676Z,80.90
2023-02-22T00:46:46.444Z,80.80
2023-02-22T00:49:16.030Z,81.20
2023-02-22T00:51:44.039Z,81.50
2023-02-22T00:54:11.954Z,82.10
2023-02-22T00:56:41.139Z,82.10
2023-02-22T00:59:08.938Z,81.70
2023-02-22T01:01:36.917Z,81.30
2023-02-22T01:04:04.939Z,81.70
2023-02-22T01:06:32.836Z,81.60
2023-02-22T01:09:02.093Z,81.80
2023-02-22T01:11:30.576Z,82.30
2023-02-22T01:14:00.412Z,82.00
2023-02-22T01:16:28.689Z,82.50
2023-02-22T01:18:56.585Z,82.20
2023-02-22T01:21:24.448Z,81.90
2023-02-22T01:23:52.305Z,82.60
2023-02-22T01:26:20.222Z,82.90
2023-02-22T01:28:48.091Z,83.60
2023-02-22T01:31:17.627Z,82.90
2023-02-22T01:33:45.657Z,82.60
2023-02-22T01:36:15.100Z,82.40
2023-02-22T01:38:42.934Z,82.40
2023-02-22T01:41:10.866Z,82.50
2023-02-22T01:43:39.742Z,82.30
2023-02-22T01:46:08.664Z,82.40
2023-02-22T01:48:44.313Z,82.50
2023-02-22T01:51:15.770Z,82.60
2023-02-22T01:53:49.791Z,82.60
2023-02-22T01:56:20.189Z,82.60
2023-02-22T01:58:53.703Z,82.70
2023-02-22T02:01:24.215Z,82.60
2023-02-22T02:03:58.031Z,82.70
2023-02-22T02:06:26.965Z,82.70
2023-02-22T02:09:01.702Z,82.60
2023-02-22T02:11:30.598Z,82.60
2023-02-22T02:14:00.943Z,83.60
2023-02-22T02:16:38.836Z,83.30
2023-02-22T02:19:16.568Z,84.20
2023-02-22T02:22:23.230Z,83.30
2023-02-22T02:25:27.798Z,83.50
2023-02-22T02:28:12.250Z,83.30
2023-02-22T02:31:11.968Z,83.50
2023-02-22T02:33:45.960Z,83.40
2023-02-22T02:36:20.413Z,83.40
2023-02-22T02:38:55.856Z,83.30
2023-02-22T02:41:28.816Z,83.30
2023-02-22T02:44:01.868Z,83.10
2023-02-22T02:46:35.763Z,82.70
2023-02-22T02:49:09.574Z,82.50
2023-02-22T02:51:40.672Z,82.80
2023-02-22T02:54:09.591Z,83.20
2023-02-22T02:56:37.481Z,84.10
2023-02-22T02:59:24.340Z,84.60
2023-02-22T03:02:03.068Z,84.50
2023-02-22T03:04:45.390Z,84.50
2023-02-22T03:07:26.428Z,85.80
2023-02-22T03:10:08.658Z,85.90
2023-02-22T03:12:45.321Z,85.80
2023-02-22T03:15:23.298Z,85.10
2023-02-22T03:17:57.491Z,85.00
2023-02-22T03:20:33.799Z,84.40
2023-02-22T03:23:09.671Z,84.40
2023-02-22T03:25:44.075Z,84.40
2023-02-22T03:28:16.576Z,84.10
2023-02-22T03:30:49.826Z,83.60
2023-02-22T03:33:21.029Z,83.10
2023-02-22T03:35:57.395Z,83.20
2023-02-22T03:38:28.842Z,83.60
2023-02-22T03:41:00.508Z,83.70
2023-02-22T03:43:32.584Z,83.60
2023-02-22T03:46:04.644Z,83.60
2023-02-22T03:48:38.803Z,84.30
2023-02-22T03:51:09.968Z,84.80
2023-02-22T03:53:38.059Z,85.50
2023-02-22T03:56:10.369Z,86.90
2023-02-22T03:58:39.789Z,86.80
2023-02-22T04:01:08.057Z,85.90
2023-02-22T04:03:35.877Z,85.00
2023-02-22T04:06:03.875Z,85.40
2023-02-22T04:08:33.287Z,85.30
2023-02-22T04:11:01.285Z,85.20
2023-02-22T04:13:29.641Z,84.40
2023-02-22T04:15:58.933Z,84.80
2023-02-22T04:18:27.407Z,84.30
2023-02-22T04:20:55.253Z,84.80
2023-02-22T04:23:38.359Z,84.10
2023-02-22T04:26:06.564Z,83.70
2023-02-22T04:28:34.444Z,84.40
2023-02-22T04:31:10.876Z,84.10
2023-02-22T04:33:39.150Z,84.20
2023-02-22T04:36:07.947Z,84.00
2023-02-22T04:38:38.315Z,84.00
2023-02-22T04:41:06.407Z,83.70
2023-02-22T04:43:34.292Z,83.40
2023-02-22T04:46:22.441Z,83.10
2023-02-22T04:48:50.409Z,83.50
2023-02-22T04:51:22.184Z,83.10
2023-02-22T04:53:59.622Z,83.00
2023-02-22T04:56:27.514Z,82.70
2023-02-22T04:58:55.536Z,82.80
2023-02-22T05:01:24.506Z,84.60
2023-02-22T05:03:52.505Z,84.30
2023-02-22T05:06:20.316Z,85.10
2023-02-22T05:08:48.195Z,84.70
2023-02-22T05:11:17.660Z,84.80
2023-02-22T05:13:45.680Z,83.80
2023-02-22T05:16:13.976Z,83.10
2023-02-22T05:18:41.941Z,82.30
2023-02-22T05:21:10.396Z,81.90
2023-02-22T05:23:38.225Z,81.20
2023-02-22T05:26:06.618Z,81.70
2023-02-22T05:28:35.822Z,81.00
2023-02-22T05:31:04.168Z,81.60
2023-02-22T05:33:32.042Z,81.30
2023-02-22T05:35:59.872Z,81.30
2023-02-22T05:38:27.715Z,80.90
2023-02-22T05:40:56.830Z,80.30
2023-02-22T05:43:24.691Z,80.30
2023-02-22T05:45:53.901Z,80.00
2023-02-22T05:48:22.710Z,79.70
2023-02-22T05:50:50.788Z,79.70
2023-02-22T05:53:18.640Z,79.00
2023-02-22T05:55:46.691Z,79.20
2023-02-22T05:58:15.058Z,79.00
2023-02-22T06:00:43.046Z,78.90
2023-02-22T06:03:13.453Z,78.60
2023-02-22T06:05:42.694Z,79.30
2023-02-22T06:08:11.891Z,78.90
2023-02-22T06:10:39.757Z,78.90
2023-02-22T06:13:08.045Z,78.50
2023-02-22T06:15:35.902Z,78.70
2023-02-22T06:18:04.163Z,78.40
2023-02-22T06:20:35.373Z,78.50
2023-02-22T06:23:03.199Z,78.60
2023-02-22T06:25:32.649Z,78.50
2023-02-22T06:28:01.776Z,78.50
2023-02-22T06:30:30.401Z,78.30
2023-02-22T06:32:58.281Z,78.50
2023-02-22T06:35:26.148Z,78.70
2023-02-22T06:37:55.399Z,79.40
2023-02-22T06:40:23.284Z,79.30
2023-02-22T06:42:51.190Z,80.10
2023-02-22T06:45:19.554Z,79.80
2023-02-22T06:47:47.803Z,79.50
2023-02-22T06:50:21.633Z,79.30
2023-02-22T06:52:49.513Z,78.80
2023-02-22T06:55:24.365Z,79.00
2023-02-22T06:57:52.653Z,78.50
2023-02-22T07:00:22.132Z,78.40
2023-02-22T07:02:50.251Z,78.40
2023-02-22T07:05:20.247Z,78.10
2023-02-22T07:07:48.936Z,77.70
2023-02-22T07:10:20.156Z,77.40
2023-02-22T07:12:49.869Z,77.70
2023-02-22T07:15:18.999Z,77.90
2023-02-22T07:17:46.875Z,77.90
2023-02-22T07:20:14.828Z,77.40
2023-02-22T07:22:42.810Z,78.10
2023-02-22T07:25:12.257Z,77.80
2023-02-22T07:27:41.484Z,77.70
2023-02-22T07:30:17.910Z,77.70
2023-02-22T07:32:46.683Z,77.40
2023-02-22T07:35:20.455Z,77.40
2023-02-22T07:37:48.333Z,77.10
2023-02-22T07:40:17.305Z,77.10
2023-02-22T07:42:52.989Z,76.60
2023-02-22T07:45:25.367Z,76.70
2023-02-22T07:47:53.485Z,76.70
2023-02-22T07:50:22.424Z,76.30
2023-02-22T07:52:53.610Z,76.20
2023-02-22T07:55:23.519Z,76.10
2023-02-22T07:57:53.104Z,76.30
2023-02-22T08:00:26.390Z,76.10
2023-02-22T08:02:54.845Z,75.90
2023-02-22T08:05:24.254Z,76.00
2023-02-22T08:07:52.144Z,75.80
2023-02-22T08:10:22.297Z,75.60
2023-02-22T08:12:50.968Z,75.30
2023-02-22T08:15:20.592Z,75.50
2023-02-22T08:17:49.798Z,75.50
2023-02-22T08:20:18.005Z,75.30
2023-02-22T08:22:45.872Z,75.50
2023-02-22T08:25:15.396Z,75.80
2023-02-22T08:27:43.795Z,78.80
2023-02-22T08:30:16.078Z,80.40
2023-02-22T08:32:44.042Z,81.60
2023-02-22T08:35:13.904Z,81.70
2023-02-22T08:37:44.155Z,80.70
2023-02-22T08:40:14.725Z,80.30
2023-02-22T08:42:42.875Z,80.10
2023-02-22T08:45:12.126Z,79.70
2023-02-22T08:47:40.270Z,79.10
2023-02-22T08:50:09.016Z,79.00
2023-02-22T08:52:38.261Z,78.80
2023-02-22T08:55:07.024Z,79.00
2023-02-22T08:57:34.864Z,79.20
2023-02-22T09:00:03.016Z,78.90
2023-02-22T09:02:30.887Z,78.30
2023-02-22T09:04:58.728Z,77.70
2023-02-22T09:07:26.640Z,77.20
2023-02-22T09:09:55.820Z,77.50
2023-02-22T09:12:23.728Z,76.40
2023-02-22T09:14:51.569Z,76.10
2023-02-22T09:17:19.437Z,75.90
2023-02-22T09:19:47.264Z,75.80
2023-02-22T09:22:15.231Z,74.90
2023-02-22T09:24:43.444Z,74.60
2023-02-22T09:27:12.939Z,74.70
2023-02-22T09:29:40.829Z,74.10
2023-02-22T09:32:08.829Z,73.70
2023-02-22T09:34:36.719Z,73.20
2023-02-22T09:37:08.674Z,73.10
2023-02-22T09:39:37.851Z,73.50
2023-02-22T09:43:35.614Z,73.10
2023-02-22T09:46:19.125Z,73.70
2023-02-22T09:49:00.361Z,74.50
2023-02-22T09:51:35.588Z,74.70
2023-02-22T09:54:07.763Z,74.30
2023-02-22T09:56:36.371Z,74.10
2023-02-22T09:59:08.801Z,74.10
2023-02-22T10:01:43.873Z,73.90
2023-02-22T10:04:18.491Z,73.50
2023-02-22T10:06:58.901Z,73.30
2023-02-22T10:09:29.219Z,73.30
2023-02-22T10:12:00.939Z,73.10
2023-02-22T10:14:48.306Z,73.10
2023-02-22T10:17:27.270Z,73.50
2023-02-22T10:20:06.065Z,74.40
2023-02-22T10:22:45.824Z,73.50
2023-02-22T10:25:17.902Z,72.90
2023-02-22T10:27:53.123Z,72.90
2023-02-22T10:30:25.606Z,72.50
2023-02-22T10:33:02.012Z,72.00
2023-02-22T10:35:33.832Z,71.80
2023-02-22T10:38:14.805Z,71.90
2023-02-22T10:40:46.085Z,71.60
2023-02-22T10:43:13.993Z,71.90
2023-02-22T10:45:41.934Z,71.00
2023-02-22T10:48:15.320Z,71.10
2023-02-22T10:50:45.820Z,71.20
2023-02-22T10:53:15.250Z,71.20
2023-02-22T10:56:13.646Z,71.20
2023-02-22T10:58:43.848Z,70.70
2023-02-22T11:01:34.629Z,70.50
2023-02-22T11:04:09.863Z,70.40
2023-02-22T11:06:38.790Z,69.80
2023-02-22T11:09:13.265Z,69.80
2023-02-22T11:11:43.297Z,70.10
2023-02-22T11:14:11.996Z,69.80
2023-02-22T11:16:43.332Z,69.60
2023-02-22T11:19:23.022Z,70.10
2023-02-22T11:21:54.118Z,69.90
2023-02-22T11:24:30.388Z,69.30
2023-02-22T11:27:03.493Z,70.60
2023-02-22T11:29:33.856Z,70.60
2023-02-22T11:32:05.261Z,70.20
2023-02-22T11:34:37.529Z,70.20
2023-02-22T11:37:30.732Z,69.50
2023-02-22T11:40:17.675Z,69.80
2023-02-22T11:42:45.950Z,69.50
2023-02-22T11:45:17.176Z,69.40
2023-02-22T11:47:53.409Z,69.40
2023-02-22T11:50:34.750Z,69.10
2023-02-22T11:53:29.442Z,68.90
2023-02-22T11:56:13.870Z,68.90
2023-02-22T11:58:47.747Z,69.60
2023-02-22T12:01:24.351Z,69.60
2023-02-22T12:04:28.726Z,69.40
2023-02-22T12:07:32.848Z,69.60
2023-02-22T12:10:15.468Z,69.00
2023-02-22T12:13:01.689Z,69.50
2023-02-22T12:15:32.458Z,69.50
2023-02-22T12:18:06.842Z,69.50
2023-02-22T12:20:39.832Z,69.60
2023-02-22T12:23:19.972Z,70.10
2023-02-22T12:25:58.683Z,69.40
2023-02-22T12:28:33.100Z,69.40
2023-02-22T12:31:11.681Z,69.00
2023-02-22T12:33:49.763Z,69.40
2023-02-22T12:36:20.770Z,68.80
2023-02-22T12:38:56.359Z,68.80
2023-02-22T12:41:32.655Z,68.90
2023-02-22T12:44:05.010Z,68.30
2023-02-22T12:46:37.083Z,68.40
2023-02-22T12:49:15.089Z,68.60
2023-02-22T12:51:49.600Z,68.80
2023-02-22T12:54:29.032Z,69.00
2023-02-22T12:57:01.940Z,68.90
2023-02-22T12:59:34.250Z,68.40
2023-02-22T13:02:10.910Z,68.50
2023-02-22T13:04:38.857Z,68.70
2023-02-22T13:07:17.559Z,68.70
2023-02-22T13:10:14.284Z,68.60
2023-02-22T13:12:52.255Z,68.60
2023-02-22T13:15:25.363Z,68.00
2023-02-22T13:18:03.018Z,68.30
2023-02-22T13:20:37.476Z,68.80
2023-02-22T13:23:12.200Z,68.80
2023-02-22T13:25:46.605Z,68.60
2023-02-22T13:28:23.124Z,68.40
2023-02-22T13:31:02.797Z,68.60
2023-02-22T13:33:44.850Z,68.10
2023-02-22T13:36:27.815Z,68.60
2023-02-22T13:39:21.136Z,68.20
2023-02-22T13:41:56.143Z,68.40
2023-02-22T13:45:05.065Z,69.40
2023-02-22T13:47:50.959Z,67.20
2023-02-22T13:50:48.621Z,68.30
2023-02-22T13:53:21.494Z,68.60
2023-02-22T13:55:56.546Z,68.40
2023-02-22T13:58:26.574Z,67.80
2023-02-22T14:00:56.651Z,67.30
2023-02-22T14:03:40.684Z,67.70
2023-02-22T14:06:41.456Z,67.20
2023-02-22T14:09:10.200Z,67.30
2023-02-22T14:11:43.033Z,67.50
2023-02-22T14:14:14.617Z,67.60
2023-02-22T14:16:42.593Z,67.60
2023-02-22T14:19:17.614Z,67.30
2023-02-22T14:22:02.091Z,67.40
2023-02-22T14:24:31.630Z,67.40
2023-02-22T14:27:03.388Z,67.50
2023-02-22T14:29:32.866Z,66.90
2023-02-22T14:32:06.213Z,67.00
2023-02-22T14:34:50.477Z,67.00
2023-02-22T14:37:21.584Z,67.00
2023-02-22T14:39:51.610Z,66.40
2023-02-22T14:42:24.949Z,66.80
2023-02-22T14:45:02.557Z,67.70
2023-02-22T14:47:39.847Z,68.10
2023-02-22T14:50:15.602Z,67.80
2023-02-22T14:52:47.310Z,67.80
2023-02-22T14:55:22.533Z,67.80
2023-02-22T14:58:01.222Z,67.00
2023-02-22T15:00:41.748Z,67.00
2023-02-22T15:03:19.600Z,67.20
2023-02-22T15:05:49.575Z,66.80
2023-02-22T15:08:27.917Z,66.70
2023-02-22T15:10:56.233Z,66.60
2023-02-22T15:13:26.639Z,66.50
2023-02-22T15:16:01.584Z,66.80
2023-02-22T15:18:34.774Z,67.10
2023-02-22T15:21:09.766Z,66.80
2023-02-22T15:23:44.819Z,67.00
2023-02-22T15:26:21.343Z,66.60
2023-02-22T15:28:53.716Z,66.90
2023-02-22T15:31:30.100Z,66.40
2023-02-22T15:33:58.376Z,67.20
2023-02-22T15:36:30.823Z,67.40
2023-02-22T15:38:58.701Z,67.50
2023-02-22T15:41:31.383Z,67.40
2023-02-22T15:44:14.259Z,66.50
2023-02-22T15:46:55.067Z,67.20
2023-02-22T15:49:25.069Z,67.00
2023-02-22T15:52:20.282Z,67.10
2023-02-22T15:54:50.449Z,66.90
2023-02-22T15:57:21.201Z,67.40
2023-02-22T15:59:53.619Z,67.50
2023-02-22T16:02:32.396Z,67.50
2023-02-22T16:05:05.130Z,67.50
2023-02-22T16:07:33.618Z,67.30
2023-02-22T16:10:08.932Z,67.50
2023-02-22T16:12:37.041Z,67.40
2023-02-22T16:15:17.272Z,67.70
2023-02-22T16:18:00.975Z,67.90
2023-02-22T16:20:33.434Z,68.80
2023-02-22T16:23:01.466Z,68.00
2023-02-22T16:25:35.506Z,68.60
2023-02-22T16:28:06.182Z,68.70
2023-02-22T16:30:36.568Z,68.70
2023-02-22T16:33:13.267Z,68.60
2023-02-22T16:35:51.513Z,68.50
2023-02-22T16:38:21.083Z,68.70
2023-02-22T16:40:52.280Z,68.80
2023-02-22T16:43:23.008Z,69.00
2023-02-22T16:45:52.765Z,68.90
2023-02-22T16:48:23.867Z,69.20
2023-02-22T16:50:53.650Z,69.00
2023-02-22T16:53:24.184Z,70.50
2023-02-22T16:55:57.555Z,71.10
2023-02-22T16:58:27.790Z,71.50
2023-02-22T17:00:57.223Z,71.50
2023-02-22T17:03:27.369Z,71.30
2023-02-22T17:05:55.218Z,71.10
2023-02-22T17:08:23.741Z,71.80
2023-02-22T17:10:56.644Z,72.70
2023-02-22T17:13:27.888Z,72.90
2023-02-22T17:15:56.013Z,72.50
2023-02-22T17:18:28.549Z,72.20
2023-02-22T17:20:56.984Z,72.20
2023-02-22T17:23:27.493Z,72.30
2023-02-22T17:25:56.817Z,72.20
2023-02-22T17:28:25.492Z,72.10
2023-02-22T17:30:54.394Z,71.90
2023-02-22T17:33:26.780Z,71.70
2023-02-22T17:35:55.938Z,71.60
2023-02-22T17:38:24.123Z,71.40
2023-02-22T17:40:52.437Z,72.10
2023-02-22T17:43:20.340Z,72.30
2023-02-22T17:45:48.659Z,72.40
2023-02-22T17:48:18.106Z,72.60
2023-02-22T17:50:49.272Z,72.90
2023-02-22T17:53:21.487Z,73.10
2023-02-22T17:55:50.213Z,73.00
2023-02-22T17:58:18.462Z,73.30
2023-02-22T18:00:48.873Z,73.20
2023-02-22T18:03:21.396Z,73.30
2023-02-22T18:05:55.942Z,73.60
2023-02-22T18:08:24.419Z,73.50
2023-02-22T18:10:56.373Z,73.70
2023-02-22T18:13:26.192Z,73.70
2023-02-22T18:15:59.741Z,74.00
2023-02-22T18:18:30.747Z,74.10
2023-02-22T18:21:00.266Z,74.10
2023-02-22T18:23:30.364Z,74.50
2023-02-22T18:26:10.675Z,74.10
2023-02-22T18:28:39.607Z,74.40
2023-02-22T18:31:08.647Z,74.20
2023-02-22T18:33:36.864Z,74.40
2023-02-22T18:36:07.180Z,74.50
2023-02-22T18:38:35.080Z,74.60
2023-02-22T18:41:04.572Z,74.80
2023-02-22T18:43:34.159Z,74.70
2023-02-22T18:46:13.568Z,74.70
2023-02-22T18:48:41.686Z,74.80
2023-02-22T18:51:13.230Z,74.90
2023-02-22T18:53:46.634Z,74.70
2023-02-22T18:56:17.734Z,74.40
2023-02-22T18:58:46.385Z,74.50
2023-02-22T19:01:17.169Z,74.20
2023-02-22T19:03:46.989Z,74.30
2023-02-22T19:06:17.910Z,74.10
2023-02-22T19:08:47.013Z,75.10
2023-02-22T19:11:19.189Z,74.90
2023-02-22T19:13:48.371Z,74.80
2023-02-22T19:16:19.679Z,74.50
2023-02-22T19:18:48.525Z,74.40
2023-02-22T19:21:18.298Z,74.30
2023-02-22T19:23:47.851Z,74.30
2023-02-22T19:26:18.561Z,74.20
2023-02-22T19:28:50.029Z,74.10
2023-02-22T19:31:20.529Z,74.20
2023-02-22T19:33:51.341Z,74.10
2023-02-22T19:36:22.877Z,74.10
2023-02-22T19:38:52.305Z,75.00
2023-02-22T19:41:22.645Z,74.60
2023-02-22T19:43:56.207Z,74.50
2023-02-22T19:46:24.904Z,74.50
2023-02-22T19:48:55.207Z,74.50
2023-02-22T19:51:28.556Z,74.60
2023-02-22T19:53:58.766Z,74.30
2023-02-22T19:56:28.189Z,74.40
2023-02-22T19:58:57.816Z,74.30
2023-02-22T20:01:27.623Z,74.10
2023-02-22T20:03:59.737Z,74.20
2023-02-22T20:06:31.845Z,74.20
2023-02-22T20:08:59.713Z,73.90
2023-02-22T20:11:28.609Z,74.10
2023-02-22T20:13:57.795Z,74.10
2023-02-22T20:16:25.786Z,73.90
2023-02-22T20:18:54.443Z,73.90
2023-02-22T20:21:25.669Z,74.60
2023-02-22T20:23:57.100Z,74.10
2023-02-22T20:26:26.318Z,74.20
2023-02-22T20:28:54.851Z,74.50
2023-02-22T20:31:23.056Z,74.10
2023-02-22T20:33:57.117Z,73.90
2023-02-22T20:36:25.291Z,74.30
2023-02-22T20:38:55.823Z,74.50
2023-02-22T20:41:25.858Z,74.40
2023-02-22T20:43:57.568Z,73.80
2023-02-22T20:46:27.230Z,74.70
2023-02-22T20:48:56.312Z,74.60
2023-02-22T20:51:24.775Z,73.90
2023-02-22T20:53:56.204Z,74.50
2023-02-22T20:56:25.109Z,74.20
2023-02-22T20:58:53.278Z,74.60
2023-02-22T21:01:22.426Z,74.60
2023-02-22T21:03:51.179Z,75.10
2023-02-22T21:06:21.258Z,74.60
2023-02-22T21:08:53.484Z,75.00
2023-02-22T21:11:24.222Z,74.50
2023-02-22T21:13:52.269Z,74.30
2023-02-22T21:16:22.544Z,74.50
2023-02-22T21:18:52.215Z,74.30
2023-02-22T21:21:20.634Z,74.20
2023-02-22T21:23:50.631Z,74.50
2023-02-22T21:26:20.654Z,74.80
2023-02-22T21:28:51.742Z,74.60
2023-02-22T21:31:21.593Z,74.00
2023-02-22T21:33:50.745Z,75.20
2023-02-22T21:36:19.010Z,74.60
2023-02-22T21:38:53.003Z,74.90
2023-02-22T21:41:23.490Z,75.10
2023-02-22T21:43:53.218Z,75.20
2023-02-22T21:46:22.574Z,74.80
2023-02-22T21:48:50.679Z,74.10
2023-02-22T21:51:20.955Z,74.80
2023-02-22T21:53:52.231Z,74.30
2023-02-22T21:56:24.136Z,75.00
2023-02-22T21:58:59.607Z,74.90
2023-02-22T22:01:28.646Z,75.10
2023-02-22T22:04:00.038Z,74.70
2023-02-22T22:06:28.945Z,74.80
2023-02-22T22:08:58.001Z,74.60
2023-02-22T22:11:25.971Z,74.80
2023-02-22T22:13:57.264Z,74.40
2023-02-22T22:16:26.795Z,75.00
2023-02-22T22:18:55.111Z,74.60
2023-02-22T22:21:24.478Z,75.20
2023-02-22T22:23:55.910Z,75.40
2023-02-22T22:26:25.621Z,74.90
2023-02-22T22:28:57.331Z,75.10
2023-02-22T22:31:26.810Z,75.80
2023-02-22T22:33:56.797Z,76.10
2023-02-22T22:36:26.418Z,76.10
2023-02-22T22:38:57.171Z,75.70
2023-02-22T22:41:27.896Z,76.20
2023-02-22T22:43:57.360Z,76.40
2023-02-22T22:46:25.367Z,76.50
2023-02-22T22:48:53.230Z,76.30
2023-02-22T22:51:22.342Z,76.30
2023-02-22T22:53:51.930Z,76.50
2023-02-22T22:56:25.838Z,77.10
2023-02-22T22:58:55.722Z,76.90
2023-02-22T23:01:27.882Z,77.40
2023-02-22T23:04:01.824Z,77.40
2023-02-22T23:06:32.719Z,77.40
2023-02-22T23:09:10.074Z,77.60
2023-02-22T23:11:39.140Z,79.40
2023-02-22T23:14:07.556Z,78.80
2023-02-22T23:16:36.828Z,78.10
2023-02-22T23:19:07.788Z,77.40
2023-02-22T23:21:35.896Z,77.40
2023-02-22T23:24:06.462Z,77.20
2023-02-22T23:26:35.187Z,77.00
2023-02-22T23:29:03.721Z,77.00
2023-02-22T23:31:32.000Z,76.60
2023-02-22T23:34:06.529Z,76.50
2023-02-22T23:36:34.694Z,77.20
2023-02-22T23:39:02.546Z,76.70
2023-02-22T23:41:31.322Z,76.80
2023-02-22T23:43:59.934Z,76.60
2023-02-22T23:46:32.679Z,76.00
2023-02-22T23:49:02.662Z,76.50
2023-02-22T23:51:38.974Z,76.40
2023-02-22T23:54:08.048Z,76.30
2023-02-22T23:56:36.702Z,76.50
2023-02-22T23:59:10.805Z,76.40
